createdAt,value
2016-06-11T00:00:04.241Z,56.77
2016-06-11T00:01:04.104Z,56.77
2016-06-11T00:02:04.107Z,56.58
2016-06-11T00:03:04.235Z,56.96
2016-06-11T00:04:03.895Z,56.58
2016-06-11T00:05:04.335Z,56.87
2016-06-11T00:06:04.151Z,56.67
2016-06-11T00:07:04.482Z,56.77
2016-06-11T00:08:03.767Z,56.67
2016-06-11T00:09:04.472Z,56.77
2016-06-11T00:10:04.336Z,56.87
2016-06-11T00:11:04.416Z,56.77
2016-06-11T00:12:03.716Z,56.87
2016-06-11T00:13:03.391Z,56.87
2016-06-11T00:14:03.707Z,56.67
2016-06-11T00:15:04.694Z,56.77
2016-06-11T00:16:03.979Z,56.87
2016-06-11T00:17:04.652Z,56.77
2016-06-11T00:18:03.750Z,56.77
2016-06-11T00:19:04.472Z,56.67
2016-06-11T00:20:04.350Z,56.87
2016-06-11T00:21:04.259Z,56.67
2016-06-11T00:24:28.552Z,56.77
2016-06-11T00:25:29.775Z,56.87
2016-06-11T00:26:29.278Z,56.87
2016-06-11T00:27:29.406Z,56.87
2016-06-11T00:28:29.550Z,56.77
2016-06-11T00:29:29.818Z,56.87
2016-06-11T00:30:29.603Z,56.87
2016-06-11T00:31:29.246Z,56.77
2016-06-11T00:32:29.765Z,56.77
2016-06-11T00:33:29.330Z,56.67
2016-06-11T00:34:29.490Z,56.67
2016-06-11T00:35:29.540Z,56.87
2016-06-11T00:36:29.653Z,56.87
2016-06-11T00:37:29.686Z,56.96
2016-06-11T00:38:29.331Z,56.77
2016-06-11T00:39:29.364Z,56.87
2016-06-11T00:40:29.509Z,56.67
2016-06-11T00:41:29.840Z,56.96
2016-06-11T00:42:29.327Z,56.77
2016-06-11T00:43:29.643Z,56.74
2016-06-11T00:44:29.443Z,56.96
2016-06-11T00:45:29.492Z,56.93
2016-06-11T00:46:29.527Z,57.13
2016-06-11T00:47:29.484Z,56.93
2016-06-11T00:48:29.361Z,57.03
2016-06-11T00:49:29.973Z,56.74
2016-06-11T00:50:29.571Z,57.03
2016-06-11T00:51:29.371Z,57.32
2016-06-11T00:52:29.404Z,57.13
2016-06-11T00:53:29.689Z,57.22
2016-06-11T00:54:29.489Z,57.22
2016-06-11T00:55:29.836Z,56.93
2016-06-11T00:56:29.511Z,56.93
2016-06-11T00:57:29.388Z,57.13
2016-06-11T00:58:29.845Z,57.22
2016-06-11T00:59:29.973Z,57.51
2016-06-11T01:00:29.570Z,57.13
2016-06-11T01:01:29.448Z,57.51
2016-06-11T01:02:29.779Z,56.93
2016-06-11T01:03:29.594Z,57.42
2016-06-11T01:04:29.489Z,57.22
2016-06-11T01:05:29.616Z,57.51
2016-06-11T01:06:29.495Z,57.51
2016-06-11T01:07:29.731Z,57.13
2016-06-11T01:08:29.423Z,57.32
2016-06-11T01:09:29.645Z,57.32
2016-06-11T01:10:29.538Z,57.42
2016-06-11T01:11:29.776Z,57.51
2016-06-11T01:12:29.966Z,57.22
2016-06-11T01:13:29.875Z,57.42
2016-06-11T01:14:30.003Z,57.51
2016-06-11T01:15:29.616Z,57.42
2016-06-11T01:16:29.384Z,57.6
2016-06-11T01:17:29.920Z,57.7
2016-06-11T01:18:29.923Z,57.8
2016-06-11T01:19:28.628Z,57.7
2016-06-11T01:20:28.741Z,57.6
2016-06-11T01:21:30.010Z,57.51
2016-06-11T01:22:29.652Z,57.99
2016-06-11T01:23:29.828Z,58.28
2016-06-11T01:24:29.940Z,58.09
2016-06-11T01:25:29.553Z,58.28
2016-06-11T01:26:29.556Z,58.09
2016-06-11T01:27:29.481Z,58.18
2016-06-11T01:28:30.015Z,58.54
2016-06-11T01:29:29.706Z,58.37
2016-06-11T01:30:29.163Z,58.28
2016-06-11T01:31:29.712Z,58.57
2016-06-11T01:32:29.137Z,58.18
2016-06-11T01:33:30.124Z,58.37
2016-06-11T01:34:29.361Z,58.37
2016-06-11T01:35:29.553Z,58.37
2016-06-11T01:36:29.868Z,58.45
2016-06-11T01:37:29.746Z,58.37
2016-06-11T01:38:29.874Z,58.54
2016-06-11T01:39:29.596Z,58.47
2016-06-11T01:40:29.818Z,58.67
2016-06-11T01:41:29.994Z,58.47
2016-06-11T01:42:29.605Z,58.28
2016-06-11T01:43:29.920Z,58.54
2016-06-11T01:44:29.534Z,57.97
2016-06-11T01:45:29.411Z,58.37
2016-06-11T01:46:29.696Z,58.35
2016-06-11T01:47:30.089Z,58.57
2016-06-11T01:48:30.076Z,58.57
2016-06-11T01:49:29.877Z,58.57
2016-06-11T01:50:29.271Z,58.45
2016-06-11T01:51:29.569Z,58.45
2016-06-11T01:52:29.917Z,58.57
2016-06-11T01:53:29.811Z,58.47
2016-06-11T01:54:29.908Z,58.67
2016-06-11T01:55:29.426Z,58.57
2016-06-11T01:56:29.789Z,58.57
2016-06-11T01:57:30.151Z,59.05
2016-06-11T01:58:29.435Z,58.92
2016-06-11T01:59:29.829Z,59.02
2016-06-11T02:00:30.036Z,58.76
2016-06-11T02:01:29.366Z,58.64
2016-06-11T02:02:30.276Z,58.92
2016-06-11T02:03:29.982Z,59.24
2016-06-11T02:04:29.673Z,59.31
2016-06-11T02:05:29.973Z,59.41
2016-06-11T02:06:29.601Z,59.02
2016-06-11T02:07:30.026Z,59.22
2016-06-11T02:08:30.216Z,59.02
2016-06-11T02:09:30.142Z,59.53
2016-06-11T02:10:29.645Z,59.89
2016-06-11T02:11:30.006Z,59.89
2016-06-11T02:12:30.151Z,59.53
2016-06-11T02:13:29.763Z,59.79
2016-06-11T02:14:29.860Z,59.41
2016-06-11T02:15:29.378Z,59.6
2016-06-11T02:16:29.694Z,59.72
2016-06-11T02:17:29.635Z,59.99
2016-06-11T02:18:30.138Z,60.08
2016-06-11T02:19:29.672Z,59.99
2016-06-11T02:20:28.566Z,60.56
2016-06-11T02:21:29.162Z,60.46
2016-06-11T02:22:29.728Z,60.46
2016-06-11T02:23:30.013Z,60.37
2016-06-11T02:24:29.765Z,60.17
2016-06-11T02:25:30.081Z,60.17
2016-06-11T02:26:29.663Z,60.27
2016-06-11T02:27:29.947Z,60.66
2016-06-11T02:28:29.558Z,60.85
2016-06-11T02:29:29.766Z,60.78
2016-06-11T02:30:28.986Z,61.33
2016-06-11T02:31:30.209Z,61.04
2016-06-11T02:32:30.118Z,61.14
2016-06-11T02:33:29.715Z,61.33
2016-06-11T02:34:29.984Z,61.23
2016-06-11T02:35:30.049Z,61.33
2016-06-11T02:36:29.740Z,61.33
2016-06-11T02:37:30.274Z,61.04
2016-06-11T02:38:29.731Z,61.04
2016-06-11T02:39:30.092Z,61.33
2016-06-11T02:40:29.783Z,61.43
2016-06-11T02:41:29.380Z,61.33
2016-06-11T02:42:29.681Z,61.23
2016-06-11T02:43:29.996Z,61.43
2016-06-11T02:44:29.905Z,61.43
2016-06-11T02:45:29.829Z,61.52
2016-06-11T02:46:29.802Z,62
2016-06-11T02:47:29.852Z,62
2016-06-11T02:48:29.808Z,61.71
2016-06-11T02:49:29.436Z,62.1
2016-06-11T02:50:29.876Z,62
2016-06-11T02:51:30.161Z,61.71
2016-06-11T02:52:29.962Z,61.81
2016-06-11T02:53:30.073Z,62
2016-06-11T02:54:30.154Z,62.1
2016-06-11T02:55:30.064Z,61.81
2016-06-11T02:56:30.036Z,61.91
2016-06-11T02:57:29.679Z,62.19
2016-06-11T02:58:30.105Z,62.1
2016-06-11T02:59:30.389Z,62.1
2016-06-11T03:00:30.220Z,62.38
2016-06-11T03:01:30.160Z,62.29
2016-06-11T03:02:29.961Z,62.38
2016-06-11T03:03:29.932Z,62.38
2016-06-11T03:04:29.716Z,62.58
2016-06-11T03:05:30.361Z,62.38
2016-06-11T03:06:29.957Z,62.58
2016-06-11T03:07:29.975Z,62.48
2016-06-11T03:08:29.792Z,62.58
2016-06-11T03:09:29.967Z,62.19
2016-06-11T03:10:29.813Z,63.15
2016-06-11T03:11:30.112Z,63.06
2016-06-11T03:12:30.240Z,62.96
2016-06-11T03:13:29.744Z,62.96
2016-06-11T03:14:30.107Z,62.96
2016-06-11T03:15:30.063Z,63.06
2016-06-11T03:16:29.956Z,62.96
2016-06-11T03:17:29.850Z,63.06
2016-06-11T03:18:29.962Z,63.06
2016-06-11T03:19:29.904Z,63.15
2016-06-11T03:20:29.750Z,63.06
2016-06-11T03:21:30.487Z,63.15
2016-06-11T03:22:30.007Z,62.96
2016-06-11T03:23:30.010Z,62.96
2016-06-11T03:24:29.980Z,63.06
2016-06-11T03:25:29.000Z,62.96
2016-06-11T03:26:30.206Z,63.06
2016-06-11T03:27:29.819Z,62.96
2016-06-11T03:28:30.025Z,63.06
2016-06-11T03:29:29.871Z,62.87
2016-06-11T03:30:29.624Z,63.35
2016-06-11T03:31:30.081Z,63.25
2016-06-11T03:32:30.271Z,63.25
2016-06-11T03:33:29.759Z,63.25
2016-06-11T03:34:30.012Z,63.25
2016-06-11T03:35:30.046Z,63.06
2016-06-11T03:36:29.956Z,63.15
2016-06-11T03:37:30.131Z,63.25
2016-06-11T03:38:29.945Z,63.15
2016-06-11T03:39:30.121Z,63.06
2016-06-11T03:40:30.343Z,63.35
2016-06-11T03:41:29.752Z,63.06
2016-06-11T03:42:29.927Z,63.25
2016-06-11T03:43:30.368Z,62.96
2016-06-11T03:44:30.371Z,63.06
2016-06-11T03:45:30.295Z,63.06
2016-06-11T03:46:29.986Z,62.96
2016-06-11T03:47:30.068Z,63.06
2016-06-11T03:48:29.587Z,63.54
2016-06-11T03:49:30.121Z,63.54
2016-06-11T03:50:30.279Z,63.35
2016-06-11T03:51:30.314Z,63.35
2016-06-11T03:52:30.146Z,62.87
2016-06-11T03:53:30.570Z,62.87
2016-06-11T03:54:30.152Z,63.35
2016-06-11T03:55:30.076Z,63.15
2016-06-11T03:56:30.361Z,63.54
2016-06-11T03:57:30.051Z,63.35
2016-06-11T03:58:30.305Z,63.54
2016-06-11T03:59:30.276Z,63.06
2016-06-11T04:00:30.529Z,63.32
2016-06-11T04:01:29.985Z,63.73
2016-06-11T04:02:30.129Z,63.35
2016-06-11T04:03:30.007Z,63.73
2016-06-11T04:04:29.994Z,63.45
2016-06-11T04:05:30.326Z,63.73
2016-06-11T04:06:30.157Z,63.45
2016-06-11T04:07:29.831Z,63.79
2016-06-11T04:08:29.788Z,63.73
2016-06-11T04:09:30.479Z,63.64
2016-06-11T04:10:30.122Z,63.92
2016-06-11T04:11:30.297Z,63.64
2016-06-11T04:12:30.144Z,63.73
2016-06-11T04:13:29.663Z,64.12
2016-06-11T04:14:29.807Z,63.83
2016-06-11T04:15:30.028Z,63.99
2016-06-11T04:16:29.890Z,63.92
2016-06-11T04:17:29.723Z,63.64
2016-06-11T04:18:30.428Z,63.7
2016-06-11T04:19:30.040Z,63.64
2016-06-11T04:20:29.966Z,63.73
2016-06-11T04:21:30.188Z,64.09
2016-06-11T04:22:30.269Z,64.09
2016-06-11T04:23:29.397Z,63.89
2016-06-11T04:24:29.854Z,63.83
2016-06-11T04:26:54.265Z,63.83
2016-06-11T04:27:54.549Z,63.79
2016-06-11T04:28:54.553Z,63.73
2016-06-11T04:29:56.149Z,63.83
2016-06-11T04:30:54.497Z,63.83
2016-06-11T04:31:54.875Z,63.73
2016-06-11T04:32:54.612Z,63.73
2016-06-11T04:33:54.397Z,63.83
2016-06-11T04:34:54.587Z,63.83
2016-06-11T04:35:54.621Z,64.02
2016-06-11T04:36:54.499Z,63.92
2016-06-11T04:37:54.815Z,63.92
2016-06-11T04:38:54.537Z,63.92
2016-06-11T04:39:54.352Z,64.12
2016-06-11T04:40:54.355Z,64.02
2016-06-11T04:41:54.422Z,63.7
2016-06-11T04:42:54.517Z,63.7
2016-06-11T04:43:54.536Z,63.7
2016-06-11T04:44:54.509Z,63.73
2016-06-11T04:45:55.667Z,63.92
2016-06-11T04:46:55.326Z,64.12
2016-06-11T04:47:54.877Z,63.64
2016-06-11T04:48:54.458Z,63.83
2016-06-11T04:49:54.633Z,63.73
2016-06-11T04:50:54.808Z,63.35
2016-06-11T04:51:54.389Z,62.87
2016-06-11T04:52:54.720Z,62.87
2016-06-11T04:53:54.552Z,63.25
2016-06-11T04:54:54.304Z,63.35
2016-06-11T04:55:55.401Z,63.45
2016-06-11T04:56:54.779Z,63.15
2016-06-11T04:57:55.095Z,63.15
2016-06-11T04:58:54.661Z,63.15
2016-06-11T04:59:55.961Z,63.35
2016-06-11T05:00:54.666Z,63.25
2016-06-11T05:01:54.545Z,63.06
2016-06-11T05:02:54.673Z,63.15
2016-06-11T05:03:54.754Z,62.96
2016-06-11T05:04:54.460Z,62.96
2016-06-11T05:08:19.689Z,62.96
2016-06-11T05:09:20.207Z,62.87
2016-06-11T05:10:20.695Z,62.96
2016-06-11T05:11:20.556Z,62.96
2016-06-11T05:12:20.420Z,63.06
2016-06-11T05:13:19.376Z,63.06
2016-06-11T05:14:19.769Z,63.06
2016-06-11T05:15:20.382Z,63.15
2016-06-11T05:16:19.854Z,63.06
2016-06-11T05:17:20.544Z,63.06
2016-06-11T05:18:19.875Z,63.06
2016-06-11T05:19:19.831Z,62.96
2016-06-11T05:20:19.742Z,63.06
2016-06-11T05:21:20.182Z,62.96
2016-06-11T05:22:21.012Z,63.06
2016-06-11T05:23:20.109Z,62.87
2016-06-11T05:24:20.738Z,62.96
2016-06-11T05:25:19.771Z,62.96
2016-06-11T05:26:19.822Z,62.77
2016-06-11T05:27:19.903Z,62.96
2016-06-11T05:28:19.827Z,63.06
2016-06-11T05:29:20.347Z,63.25
2016-06-11T05:30:20.522Z,62.96
2016-06-11T05:31:19.947Z,63.06
2016-06-11T05:32:19.950Z,63.15
2016-06-11T05:33:20.203Z,63.15
2016-06-11T05:34:20.315Z,63.06
2016-06-11T05:35:20.521Z,62.87
2016-06-11T05:36:20.447Z,63.06
2016-06-11T05:37:20.355Z,63.06
2016-06-11T05:38:20.530Z,63.15
2016-06-11T05:39:20.253Z,62.96
2016-06-11T05:40:20.083Z,62.96
2016-06-11T05:41:20.367Z,62.96
2016-06-11T05:42:19.871Z,62.77
2016-06-11T05:43:20.374Z,62.87
2016-06-11T05:44:19.658Z,63.15
2016-06-11T05:45:21.115Z,62.68
2016-06-11T05:46:20.603Z,62.48
2016-06-11T05:47:19.605Z,62.29
2016-06-11T05:48:20.327Z,62.87
2016-06-11T05:49:20.002Z,62.96
2016-06-11T05:50:20.537Z,62.96
2016-06-11T05:51:20.476Z,62.38
2016-06-11T05:52:20.761Z,62.58
2016-06-11T05:53:20.499Z,62.96
2016-06-11T05:54:20.768Z,62.38
2016-06-11T05:55:20.380Z,62.68
2016-06-11T05:56:20.116Z,62.38
2016-06-11T05:57:20.670Z,62.58
2016-06-11T05:58:20.762Z,62.29
2016-06-11T05:59:20.039Z,62.29
2016-06-11T06:00:20.004Z,62.29
2016-06-11T06:01:20.518Z,62.29
2016-06-11T06:02:20.851Z,62.29
2016-06-11T06:03:20.307Z,62.29
2016-06-11T06:04:20.761Z,62.29
2016-06-11T06:05:20.936Z,62.38
2016-06-11T06:06:20.938Z,62.38
2016-06-11T06:07:20.760Z,62.61
2016-06-11T06:08:21.190Z,62
2016-06-11T06:09:20.777Z,61.91
2016-06-11T06:10:20.801Z,62.19
2016-06-11T06:11:21.107Z,62
2016-06-11T06:12:20.878Z,61.81
2016-06-11T06:13:20.836Z,61.81
2016-06-11T06:14:20.841Z,62.03
2016-06-11T06:15:20.518Z,61.84
2016-06-11T06:16:20.898Z,62.03
2016-06-11T06:17:20.964Z,62.1
2016-06-11T06:18:20.984Z,62.13
2016-06-11T06:19:20.877Z,61.94
2016-06-11T06:20:20.991Z,61.91
2016-06-11T06:21:20.807Z,61.81
2016-06-11T06:22:20.921Z,62.1
2016-06-11T06:23:21.345Z,62.13
2016-06-11T06:24:21.130Z,62.13
2016-06-11T06:25:21.225Z,61.94
2016-06-11T06:26:21.183Z,62.13
2016-06-11T06:27:20.779Z,62.03
2016-06-11T06:28:21.079Z,62.03
2016-06-11T06:29:21.285Z,62.03
2016-06-11T06:30:20.804Z,62.03
2016-06-11T06:31:21.166Z,62
2016-06-11T06:32:21.310Z,61.94
2016-06-11T06:33:20.861Z,62
2016-06-11T06:34:21.144Z,61.84
2016-06-11T06:35:21.319Z,61.84
2016-06-11T06:36:20.807Z,61.65
2016-06-11T06:37:21.560Z,61.74
2016-06-11T06:38:21.234Z,61.74
2016-06-11T06:39:20.832Z,61.94
2016-06-11T06:40:21.179Z,61.74
2016-06-11T06:41:21.088Z,62.03
2016-06-11T06:42:21.169Z,61.94
2016-06-11T06:44:44.881Z,61.71
2016-06-11T06:45:45.509Z,61.84
2016-06-11T06:46:45.138Z,62.03
2016-06-11T06:47:45.001Z,61.74
2016-06-11T06:48:44.784Z,61.74
2016-06-11T06:49:44.912Z,62.03
2016-06-11T06:50:44.994Z,61.74
2016-06-11T06:51:44.934Z,61.84
2016-06-11T06:52:45.030Z,61.74
2016-06-11T06:53:45.769Z,61.84
2016-06-11T06:54:44.850Z,62.13
2016-06-11T06:55:45.228Z,62.03
2016-06-11T06:56:44.981Z,62.13
2016-06-11T06:57:44.891Z,62.03
2016-06-11T06:58:44.924Z,61.94
2016-06-11T06:59:45.083Z,62.13
2016-06-11T07:00:45.025Z,62.13
2016-06-11T07:01:45.386Z,61.94
2016-06-11T07:02:45.156Z,61.84
2016-06-11T07:03:45.189Z,61.84
2016-06-11T07:04:44.928Z,62.13
2016-06-11T07:05:44.977Z,62.23
2016-06-11T07:06:45.652Z,62.03
2016-06-11T07:07:44.921Z,62.32
2016-06-11T07:08:44.986Z,62.13
2016-06-11T07:09:45.505Z,62.13
2016-06-11T07:10:44.789Z,62.13
2016-06-11T07:11:45.433Z,62.13
2016-06-11T07:12:44.998Z,61.94
2016-06-11T07:13:45.595Z,62.32
2016-06-11T07:14:45.209Z,62.23
2016-06-11T07:15:46.539Z,62.71
2016-06-11T07:16:45.042Z,62.51
2016-06-11T07:17:44.999Z,62.32
2016-06-11T07:18:45.736Z,62.51
2016-06-11T07:19:45.629Z,62.13
2016-06-11T07:20:45.664Z,62.23
2016-06-11T07:21:45.776Z,62.23
2016-06-11T07:22:45.170Z,62.13
2016-06-11T07:23:46.220Z,62.13
2016-06-11T07:24:45.176Z,62.13
2016-06-11T07:25:45.663Z,62.23
2016-06-11T07:26:44.807Z,62.32
2016-06-11T07:27:45.123Z,62.13
2016-06-11T07:28:44.939Z,62.03
2016-06-11T07:29:45.114Z,62.13
2016-06-11T07:30:45.053Z,62.13
2016-06-11T07:31:45.120Z,62.03
2016-06-11T07:32:45.091Z,62.13
2016-06-11T07:33:45.095Z,62.06
2016-06-11T07:34:45.879Z,62.13
2016-06-11T07:35:45.491Z,62.23
2016-06-11T07:36:45.713Z,62.61
2016-06-11T07:37:45.294Z,62.06
2016-06-11T07:38:45.157Z,62.41
2016-06-11T07:39:45.520Z,62.61
2016-06-11T07:40:45.381Z,63.12
2016-06-11T07:41:45.728Z,62.99
2016-06-11T07:42:45.732Z,63.12
2016-06-11T07:43:45.001Z,62.83
2016-06-11T07:44:45.956Z,62.54
2016-06-11T07:45:45.210Z,62.64
2016-06-11T07:46:45.072Z,62.16
2016-06-11T07:47:45.950Z,62.16
2016-06-11T07:48:45.250Z,62.35
2016-06-11T07:49:45.128Z,62.03
2016-06-11T07:50:45.209Z,62.06
2016-06-11T07:51:45.618Z,62.06
2016-06-11T07:52:45.293Z,62.06
2016-06-11T07:53:45.844Z,61.97
2016-06-11T07:54:45.144Z,61.97
2016-06-11T07:55:45.521Z,62.16
2016-06-11T07:56:45.212Z,62.06
2016-06-11T07:57:45.762Z,62.16
2016-06-11T07:58:45.172Z,62.16
2016-06-11T07:59:45.253Z,62.54
2016-06-11T08:00:45.334Z,62.45
2016-06-11T08:01:45.368Z,61.97
2016-06-11T08:02:45.293Z,62.26
2016-06-11T08:03:45.374Z,62.16
2016-06-11T08:04:45.049Z,62.16
2016-06-11T08:05:45.178Z,62.26
2016-06-11T08:06:45.336Z,62.16
2016-06-11T08:07:46.122Z,61.97
2016-06-11T08:08:46.030Z,61.87
2016-06-11T08:09:45.314Z,61.77
2016-06-11T08:10:45.192Z,62.06
2016-06-11T08:11:45.180Z,62.06
2016-06-11T08:12:45.855Z,62.06
2016-06-11T08:13:45.764Z,62.06
2016-06-11T08:14:45.689Z,61.97
2016-06-11T08:15:45.255Z,61.77
2016-06-11T08:16:45.289Z,61.58
2016-06-11T08:17:45.136Z,61.39
2016-06-11T08:18:45.234Z,61.19
2016-06-11T08:19:45.814Z,61.29
2016-06-11T08:20:45.317Z,61.39
2016-06-11T08:21:45.460Z,61.49
2016-06-11T08:22:45.183Z,61.29
2016-06-11T08:23:45.046Z,61.39
2016-06-11T08:24:46.002Z,61.39
2016-06-11T08:25:45.755Z,60.91
2016-06-11T08:26:45.726Z,61
2016-06-11T08:27:45.011Z,61
2016-06-11T08:28:45.342Z,61.29
2016-06-11T08:29:45.814Z,61.39
2016-06-11T08:30:45.098Z,61.19
2016-06-11T08:33:41.888Z,61.42
2016-06-11T08:34:10.076Z,61.13
2016-06-11T08:35:38.833Z,61.29
2016-06-11T08:36:39.757Z,61.32
2016-06-11T08:37:39.713Z,60.84
2016-06-11T08:38:40.325Z,60.65
2016-06-11T08:39:40.485Z,60.84
2016-06-11T08:40:40.473Z,60.84
2016-06-11T08:41:40.788Z,60.84
2016-06-11T08:42:40.666Z,60.65
2016-06-11T08:43:40.591Z,60.84
2016-06-11T08:44:40.375Z,60.36
2016-06-11T08:45:40.300Z,60.46
2016-06-11T08:46:40.678Z,60.46
2016-06-11T08:47:40.837Z,60.27
2016-06-11T08:48:40.215Z,60.46
2016-06-11T08:49:40.328Z,60.46
2016-06-11T08:50:40.846Z,60.46
2016-06-11T08:51:40.303Z,60.27
2016-06-11T08:52:40.697Z,60.46
2016-06-11T08:53:40.856Z,60.36
2016-06-11T08:54:40.766Z,60.46
2016-06-11T08:55:40.456Z,60.27
2016-06-11T08:56:40.506Z,60.55
2016-06-11T08:57:40.603Z,60.65
2016-06-11T08:58:40.356Z,60.27
2016-06-11T08:59:40.407Z,60.55
2016-06-11T09:00:40.627Z,60.46
2016-06-11T09:01:41.366Z,60.46
2016-06-11T09:02:40.743Z,60.55
2016-06-11T09:03:40.839Z,60.55
2016-06-11T09:04:40.483Z,60.65
2016-06-11T09:05:40.237Z,60.84
2016-06-11T09:06:40.771Z,60.65
2016-06-11T09:07:40.492Z,60.84
2016-06-11T09:08:40.668Z,60.84
2016-06-11T09:09:40.608Z,60.75
2016-06-11T09:10:40.471Z,60.94
2016-06-11T09:11:40.489Z,61.42
2016-06-11T09:12:40.649Z,61.22
2016-06-11T09:13:40.590Z,61.42
2016-06-11T09:14:40.389Z,61.32
2016-06-11T09:15:41.595Z,61.52
2016-06-11T09:16:40.879Z,61.61
2016-06-11T09:17:40.320Z,61.8
2016-06-11T09:18:40.355Z,62.12
2016-06-11T09:19:40.155Z,61.74
2016-06-11T09:20:40.346Z,62
2016-06-11T09:21:40.723Z,62.09
2016-06-11T09:22:40.602Z,62.19
2016-06-11T09:23:40.526Z,62.09
2016-06-11T09:24:40.342Z,62.09
2016-06-11T09:25:40.892Z,62
2016-06-11T09:26:40.349Z,61.71
2016-06-11T09:27:40.523Z,62.12
2016-06-11T09:28:40.964Z,61.71
2016-06-11T09:29:40.544Z,61.8
2016-06-11T09:30:40.345Z,62.03
2016-06-11T09:31:40.755Z,62.38
2016-06-11T09:32:40.554Z,62.32
2016-06-11T09:33:40.776Z,62.22
2016-06-11T09:34:40.670Z,62.19
2016-06-11T09:35:40.626Z,62.51
2016-06-11T09:36:40.816Z,62.6
2016-06-11T09:37:39.694Z,62.41
2016-06-11T09:38:40.291Z,62.7
2016-06-11T09:39:40.325Z,62.12
2016-06-11T09:40:41.048Z,62.32
2016-06-11T09:41:40.456Z,62.09
2016-06-11T09:42:40.459Z,62.32
2016-06-11T09:43:40.463Z,62.22
2016-06-11T09:44:40.685Z,62.41
2016-06-11T09:45:40.688Z,62.51
2016-06-11T09:48:05.397Z,62.12
2016-06-11T09:49:05.899Z,62.41
2016-06-11T09:50:05.731Z,62.7
2016-06-11T09:51:05.734Z,63.28
2016-06-11T09:52:05.628Z,62.9
2016-06-11T09:53:05.740Z,62.7
2016-06-11T09:54:05.290Z,63.18
2016-06-11T09:55:06.153Z,63.28
2016-06-11T09:56:05.968Z,62.51
2016-06-11T09:57:05.643Z,62.51
2016-06-11T09:58:05.569Z,62.51
2016-06-11T09:59:05.775Z,62.99
2016-06-11T10:00:05.699Z,63.09
2016-06-11T10:01:06.139Z,62.99
2016-06-11T10:02:05.487Z,62.9
2016-06-11T10:03:04.740Z,63.09
2016-06-11T10:04:05.431Z,62.8
2016-06-11T10:05:05.934Z,62.32
2016-06-11T10:06:05.953Z,62.41
2016-06-11T10:07:05.252Z,62.41
2016-06-11T10:08:05.958Z,62.9
2016-06-11T10:09:05.539Z,62.41
2016-06-11T10:10:06.090Z,62.41
2016-06-11T10:11:05.687Z,62.51
2016-06-11T10:12:05.720Z,62.41
2016-06-11T10:13:05.973Z,62.22
2016-06-11T10:14:05.883Z,62.41
2016-06-11T10:15:05.730Z,62.41
2016-06-11T10:16:06.405Z,62.41
2016-06-11T10:17:05.455Z,62.32
2016-06-11T10:18:05.692Z,62.41
2016-06-11T10:19:06.008Z,62.22
2016-06-11T10:20:05.574Z,62.41
2016-06-11T10:21:05.795Z,62.03
2016-06-11T10:22:05.689Z,62.22
2016-06-11T10:23:05.582Z,62.22
2016-06-11T10:24:05.976Z,61.93
2016-06-11T10:25:05.698Z,62.12
2016-06-11T10:26:05.701Z,62.22
2016-06-11T10:27:05.986Z,62.22
2016-06-11T10:28:05.847Z,61.93
2016-06-11T10:29:05.633Z,62.03
2016-06-11T10:30:05.853Z,62.06
2016-06-11T10:31:05.764Z,62.03
2016-06-11T10:32:05.657Z,61.87
2016-06-11T10:33:06.051Z,62.25
2016-06-11T10:34:05.430Z,62.12
2016-06-11T10:35:05.854Z,62.12
2016-06-11T10:36:06.294Z,62.15
2016-06-11T10:37:05.486Z,62.12
2016-06-11T10:38:05.769Z,61.58
2016-06-11T10:39:06.303Z,61.19
2016-06-11T10:40:06.010Z,61.48
2016-06-11T10:41:05.716Z,61.58
2016-06-11T10:42:05.704Z,61.29
2016-06-11T10:43:05.753Z,61.58
2016-06-11T10:44:06.147Z,61.48
2016-06-11T10:45:05.400Z,61.68
2016-06-11T10:46:05.966Z,62.06
2016-06-11T10:47:06.094Z,61.48
2016-06-11T10:48:05.800Z,61.48
2016-06-11T10:49:05.882Z,61.48
2016-06-11T10:50:06.087Z,61.38
2016-06-11T10:51:05.919Z,61.38
2016-06-11T10:52:05.921Z,61.48
2016-06-11T10:53:05.879Z,61.19
2016-06-11T10:54:06.099Z,61.19
2016-06-11T10:55:05.744Z,61.38
2016-06-11T10:56:05.997Z,61.38
2016-06-11T10:57:05.641Z,61.38
2016-06-11T10:58:05.675Z,60.8
2016-06-11T10:59:05.834Z,60.61
2016-06-11T11:00:05.665Z,60.8
2016-06-11T11:01:05.543Z,60.32
2016-06-11T11:02:06.218Z,60.42
2016-06-11T11:03:05.956Z,60.61
2016-06-11T11:04:05.052Z,60.61
2016-06-11T11:05:06.290Z,60.52
2016-06-11T11:06:05.809Z,60.8
2016-06-11T11:07:05.811Z,60.52
2016-06-11T11:08:06.128Z,60.13
2016-06-11T11:09:05.928Z,60.32
2016-06-11T11:10:06.149Z,60.13
2016-06-11T11:11:06.058Z,59.75
2016-06-11T11:12:06.265Z,59.94
2016-06-11T11:13:05.846Z,59.94
2016-06-11T11:14:05.974Z,59.84
2016-06-11T11:15:05.977Z,59.75
2016-06-11T11:16:06.183Z,59.94
2016-06-11T11:17:05.624Z,59.84
2016-06-11T11:18:05.908Z,59.84
2016-06-11T11:19:05.505Z,59.94
2016-06-11T11:20:06.149Z,59.94
2016-06-11T11:21:05.980Z,60.13
2016-06-11T11:22:05.905Z,59.94
2016-06-11T11:23:05.752Z,59.84
2016-06-11T11:24:06.349Z,59.84
2016-06-11T11:25:05.852Z,59.84
2016-06-11T11:26:05.855Z,59.36
2016-06-11T11:27:06.076Z,59.2
2016-06-11T11:28:05.814Z,59.17
2016-06-11T11:29:05.473Z,59.17
2016-06-11T11:30:06.399Z,59.17
2016-06-11T11:31:06.121Z,59.36
2016-06-11T11:32:06.217Z,59.58
2016-06-11T11:33:05.830Z,59.48
2016-06-11T11:34:05.973Z,59.55
2016-06-11T11:35:05.913Z,59.58
2016-06-11T11:36:06.057Z,59.48
2016-06-11T11:37:05.951Z,59.3
2016-06-11T11:38:05.734Z,59.48
2016-06-11T11:39:05.926Z,59.65
2016-06-11T11:40:06.008Z,59.48
2016-06-11T11:41:06.291Z,59.68
2016-06-11T11:42:06.216Z,59.58
2016-06-11T11:43:05.892Z,59.39
2016-06-11T11:44:06.441Z,59.2
2016-06-11T11:45:06.006Z,59.2
2016-06-11T11:46:06.120Z,59
2016-06-11T11:47:06.450Z,59.1
2016-06-11T11:48:06.329Z,59
2016-06-11T11:49:06.160Z,59.1
2016-06-11T11:50:06.146Z,58.81
2016-06-11T11:51:06.275Z,58.91
2016-06-11T11:52:06.497Z,59.3
2016-06-11T11:53:06.172Z,58.91
2016-06-11T11:54:05.972Z,59.1
2016-06-11T11:55:06.475Z,58.72
2016-06-11T11:56:05.915Z,58.62
2016-06-11T11:57:06.356Z,58.52
2016-06-11T11:58:06.203Z,58.52
2016-06-11T11:59:06.112Z,58.14
2016-06-11T12:00:06.366Z,58.45
2016-06-11T12:01:05.728Z,58.52
2016-06-11T12:02:06.669Z,58.52
2016-06-11T12:03:06.390Z,58.52
2016-06-11T12:04:06.065Z,58.72
2016-06-11T12:05:05.255Z,58.81
2016-06-11T12:06:05.431Z,58.62
2016-06-11T12:07:06.231Z,58.55
2016-06-11T12:08:06.218Z,58.52
2016-06-11T12:09:06.018Z,58.65
2016-06-11T12:10:05.912Z,58.65
2016-06-11T12:11:06.243Z,58.75
2016-06-11T12:12:06.261Z,58.62
2016-06-11T12:13:06.046Z,58.55
2016-06-11T12:14:06.565Z,58.55
2016-06-11T12:15:06.176Z,58.55
2016-06-11T12:16:06.399Z,58.84
2016-06-11T12:17:06.902Z,58.84
2016-06-11T12:18:06.468Z,58.84
2016-06-11T12:19:06.018Z,58.45
2016-06-11T12:20:06.114Z,58.65
2016-06-11T12:21:06.055Z,58.45
2016-06-11T12:22:06.042Z,58.36
2016-06-11T12:23:06.342Z,58.75
2016-06-11T12:24:06.533Z,58.65
2016-06-11T12:25:06.224Z,58.65
2016-06-11T12:26:05.960Z,58.65
2016-06-11T12:27:06.168Z,58.65
2016-06-11T12:28:05.967Z,58.26
2016-06-11T12:29:06.157Z,58.26
2016-06-11T12:30:06.192Z,58.07
2016-06-11T12:31:06.226Z,58.45
2016-06-11T12:32:06.495Z,58.55
2016-06-11T12:33:05.811Z,58.45
2016-06-11T12:34:06.517Z,58.45
2016-06-11T12:35:06.161Z,57.78
2016-06-11T12:36:06.336Z,57.87
2016-06-11T12:37:06.557Z,57.87
2016-06-11T12:38:06.138Z,57.87
2016-06-11T12:39:06.391Z,57.87
2016-06-11T12:40:06.051Z,58.17
2016-06-11T12:41:06.226Z,57.87
2016-06-11T12:42:05.901Z,57.97
2016-06-11T12:43:06.607Z,57.68
2016-06-11T12:44:06.298Z,57.78
2016-06-11T12:45:06.410Z,57.78
2016-06-11T12:46:06.351Z,57.68
2016-06-11T12:47:06.322Z,57.68
2016-06-11T12:48:06.528Z,57.59
2016-06-11T12:49:06.344Z,57.29
2016-06-11T12:50:06.551Z,57.78
2016-06-11T12:51:06.069Z,57.71
2016-06-11T12:52:06.479Z,57.62
2016-06-11T12:53:06.654Z,57.59
2016-06-11T12:54:06.188Z,57.39
2016-06-11T12:55:06.410Z,57.52
2016-06-11T12:56:06.413Z,57.52
2016-06-11T12:57:06.635Z,57.68
2016-06-11T12:58:05.919Z,57.62
2016-06-11T12:59:06.609Z,57.42
2016-06-11T13:00:06.207Z,57.42
2016-06-11T13:01:06.100Z,57.42
2016-06-11T13:02:07.181Z,57.68
2016-06-11T13:03:06.154Z,57.71
2016-06-11T13:04:06.218Z,57.32
2016-06-11T13:05:05.769Z,57.52
2016-06-11T13:06:06.240Z,57.23